createdAt,value
2022-09-12T00:02:08.940Z,100617.53
2022-09-12T00:04:38.449Z,100618.50
2022-09-12T00:07:07.923Z,100611.06
2022-09-12T00:09:39.985Z,100612.91
2022-09-12T00:12:09.587Z,100610.97
2022-09-12T00:14:39.107Z,100602.63
2022-09-12T00:17:08.588Z,100608.53
2022-09-12T00:19:38.120Z,100613.06
2022-09-12T00:22:07.897Z,100605.53
2022-09-12T00:24:40.951Z,100598.47
2022-09-12T00:27:10.459Z,100598.63
2022-09-12T00:29:39.893Z,100605.59
2022-09-12T00:32:09.345Z,100599.16
2022-09-12T00:34:39.189Z,100595.38
2022-09-12T00:37:08.680Z,100590.97
2022-09-12T00:39:40.800Z,100592.25
2022-09-12T00:42:11.815Z,100590.53
2022-09-12T00:44:53.973Z,100583.00
2022-09-12T00:47:25.981Z,100585.91
2022-09-12T00:49:58.164Z,100585.91
2022-09-12T00:52:29.649Z,100580.56
2022-09-12T00:55:03.931Z,100582.69
2022-09-12T00:57:36.225Z,100574.81
2022-09-12T01:00:11.521Z,100582.22
2022-09-12T01:02:41.004Z,100579.69
2022-09-12T01:05:11.490Z,100578.03
2022-09-12T01:07:41.504Z,100578.97
2022-09-12T01:10:13.773Z,100584.13
2022-09-12T01:12:43.441Z,100578.63
2022-09-12T01:15:13.067Z,100571.25
2022-09-12T01:17:50.288Z,100569.25
2022-09-12T01:21:00.174Z,100576.41
2022-09-12T01:23:53.938Z,100571.75
2022-09-12T01:26:58.802Z,100563.16
2022-09-12T01:29:43.500Z,100566.78
2022-09-12T01:32:18.293Z,100571.22
2022-09-12T01:34:49.599Z,100566.59
2022-09-12T01:37:21.630Z,100570.53
2022-09-12T01:39:53.897Z,100568.44
2022-09-12T01:42:25.448Z,100568.66
2022-09-12T01:44:57.530Z,100569.16
2022-09-12T01:47:32.197Z,100566.72
2022-09-12T01:50:03.501Z,100568.38
2022-09-12T01:52:35.876Z,100567.66
2022-09-12T01:55:09.815Z,100560.72
2022-09-12T01:57:43.797Z,100562.09
2022-09-12T02:00:14.154Z,100559.66
2022-09-12T02:02:50.690Z,100552.69
2022-09-12T02:05:21.490Z,100551.53
2022-09-12T02:07:52.945Z,100550.63
2022-09-12T02:10:23.612Z,100554.31
2022-09-12T02:12:55.415Z,100551.41
2022-09-12T02:15:26.852Z,100546.06
2022-09-12T02:17:59.376Z,100548.06
2022-09-12T02:20:47.562Z,100547.00
2022-09-12T02:23:20.630Z,100545.84
2022-09-12T02:25:50.422Z,100540.38
2022-09-12T02:28:21.721Z,100547.13
2022-09-12T02:30:53.577Z,100543.63
2022-09-12T02:33:27.712Z,100538.44
2022-09-12T02:36:00.051Z,100536.78
2022-09-12T02:38:30.968Z,100537.69
2022-09-12T02:41:00.497Z,100541.31
2022-09-12T02:43:29.947Z,100540.50
2022-09-12T02:45:59.441Z,100534.91
2022-09-12T02:48:32.895Z,100532.72
2022-09-12T02:51:02.559Z,100535.63
2022-09-12T02:53:32.028Z,100539.00
2022-09-12T02:56:01.529Z,100538.91
2022-09-12T02:58:32.937Z,100538.56
2022-09-12T03:01:06.138Z,100544.13
2022-09-12T03:03:51.244Z,100534.72
2022-09-12T03:06:21.643Z,100541.00
2022-09-12T03:09:01.469Z,100531.69
2022-09-12T03:11:44.877Z,100529.50
2022-09-12T03:14:20.932Z,100534.03
2022-09-12T03:16:55.468Z,100528.91
2022-09-12T03:19:28.864Z,100531.38
2022-09-12T03:22:03.733Z,100523.34
2022-09-12T03:24:34.890Z,100529.97
2022-09-12T03:27:07.152Z,100522.06
2022-09-12T03:29:36.642Z,100529.72
2022-09-12T03:32:07.537Z,100532.97
2022-09-12T03:34:39.585Z,100527.84
2022-09-12T03:37:09.009Z,100531.81
2022-09-12T03:39:38.531Z,100524.13
2022-09-12T03:42:08.153Z,100534.03
2022-09-12T03:44:37.613Z,100537.75
2022-09-12T03:47:11.138Z,100527.28
2022-09-12T03:49:43.545Z,100528.09
2022-09-12T03:52:13.015Z,100528.34
2022-09-12T03:54:42.428Z,100536.56
2022-09-12T03:57:11.808Z,100536.78
2022-09-12T03:59:41.253Z,100533.31
2022-09-12T04:02:12.583Z,100528.78
2022-09-12T04:04:48.839Z,100532.94
2022-09-12T04:07:18.397Z,100533.78
2022-09-12T04:09:47.809Z,100528.44
2022-09-12T04:12:17.231Z,100534.47
2022-09-12T04:14:46.654Z,100536.09
2022-09-12T04:17:16.050Z,100525.88
2022-09-12T04:19:48.021Z,100527.97
2022-09-12T04:22:17.606Z,100531.91
2022-09-12T04:24:47.015Z,100530.97
2022-09-12T04:27:16.423Z,100532.72
2022-09-12T04:29:45.816Z,100534.78
2022-09-12T04:32:15.258Z,100539.75
2022-09-12T04:34:44.664Z,100534.56
2022-09-12T04:37:16.921Z,100534.34
2022-09-12T04:39:48.040Z,100536.41
2022-09-12T04:42:17.216Z,100534.56
2022-09-12T04:44:46.642Z,100540.59
2022-09-12T04:47:16.820Z,100534.91
2022-09-12T04:49:46.311Z,100541.09
2022-09-12T04:52:18.278Z,100540.31
2022-09-12T04:54:47.710Z,100535.75
2022-09-12T04:57:17.093Z,100532.16
2022-09-12T04:59:46.506Z,100536.91
2022-09-12T05:02:16.377Z,100535.06
2022-09-12T05:04:46.920Z,100541.44
2022-09-12T05:07:19.345Z,100534.69
2022-09-12T05:09:48.797Z,100534.34
2022-09-12T05:12:18.946Z,100538.28
2022-09-12T05:14:48.373Z,100541.75
2022-09-12T05:17:17.747Z,100538.06
2022-09-12T05:19:47.404Z,100539.69
2022-09-12T05:22:19.355Z,100533.09
2022-09-12T05:24:50.770Z,100535.75
2022-09-12T05:27:20.283Z,100532.63
2022-09-12T05:29:53.805Z,100542.00
2022-09-12T05:32:23.466Z,100531.47
2022-09-12T05:34:52.891Z,100539.25
2022-09-12T05:37:24.918Z,100536.94
2022-09-12T05:39:54.958Z,100530.97
2022-09-12T05:42:24.418Z,100531.19
2022-09-12T05:44:54.077Z,100526.78
2022-09-12T05:47:23.553Z,100524.25
2022-09-12T05:49:53.008Z,100531.09
2022-09-12T05:52:25.352Z,100519.41
2022-09-12T05:54:54.764Z,100522.97
2022-09-12T05:57:24.273Z,100527.97
2022-09-12T05:59:54.060Z,100527.16
2022-09-12T06:02:23.512Z,100541.56
2022-09-12T06:04:52.958Z,100546.66
2022-09-12T06:07:24.964Z,100544.66
2022-09-12T06:09:54.369Z,100538.63
2022-09-12T06:12:23.776Z,100537.84
2022-09-12T06:14:54.299Z,100539.56
2022-09-12T06:17:23.710Z,100555.59
2022-09-12T06:19:53.547Z,100540.47
2022-09-12T06:22:25.670Z,100534.75
2022-09-12T06:24:57.954Z,100542.72
2022-09-12T06:27:27.751Z,100543.91
2022-09-12T06:29:57.149Z,100541.41
2022-09-12T06:32:26.656Z,100546.75
2022-09-12T06:34:56.448Z,100553.56
2022-09-12T06:37:28.504Z,100554.13
2022-09-12T06:39:57.940Z,100545.53
2022-09-12T06:42:27.363Z,100545.22
2022-09-12T06:44:56.752Z,100537.13
2022-09-12T06:47:26.281Z,100545.72
2022-09-12T06:49:55.667Z,100543.59
2022-09-12T06:52:29.174Z,100546.75
2022-09-12T06:54:58.723Z,100540.69
2022-09-12T06:57:30.505Z,100537.75
2022-09-12T06:59:59.901Z,100544.09
2022-09-12T07:02:29.333Z,100537.56
2022-09-12T07:04:58.752Z,100543.44
2022-09-12T07:07:34.297Z,100545.22
2022-09-12T07:10:03.706Z,100553.13
2022-09-12T07:12:36.106Z,100555.94
2022-09-12T07:15:06.353Z,100549.59
2022-09-12T07:17:35.789Z,100552.38
2022-09-12T07:20:05.638Z,100552.75
2022-09-12T07:22:37.873Z,100543.66
2022-09-12T07:25:08.138Z,100539.41
2022-09-12T07:27:37.859Z,100541.84
2022-09-12T07:30:08.269Z,100543.13
2022-09-12T07:32:37.711Z,100537.00
2022-09-12T07:35:07.914Z,100533.81
2022-09-12T07:37:39.948Z,100535.66
2022-09-12T07:40:10.444Z,100527.84
2022-09-12T07:42:39.917Z,100527.06
2022-09-12T07:45:10.304Z,100518.75
2022-09-12T07:47:41.126Z,100517.69
2022-09-12T07:50:11.496Z,100512.66
2022-09-12T07:52:43.493Z,100527.50
2022-09-12T07:55:12.895Z,100523.25
2022-09-12T07:57:42.326Z,100526.59
2022-09-12T08:00:12.966Z,100526.38
2022-09-12T08:02:42.425Z,100532.53
2022-09-12T08:05:12.408Z,100528.88
2022-09-12T08:07:44.405Z,100530.38
2022-09-12T08:10:13.910Z,100533.06
2022-09-12T08:12:43.325Z,100539.34
2022-09-12T08:15:13.326Z,100540.63
2022-09-12T08:17:43.120Z,100538.06
2022-09-12T08:20:12.696Z,100545.41
2022-09-12T08:22:44.702Z,100548.13
2022-09-12T08:25:14.114Z,100544.34
2022-09-12T08:27:44.356Z,100538.94
2022-09-12T08:30:15.657Z,100547.28
2022-09-12T08:32:45.069Z,100550.00
2022-09-12T08:35:15.151Z,100545.69
2022-09-12T08:37:47.138Z,100553.78
2022-09-12T08:40:19.113Z,100556.22
2022-09-12T08:42:55.646Z,100555.69
2022-09-12T08:45:26.110Z,100554.06
2022-09-12T08:47:55.521Z,100551.06
2022-09-12T08:50:25.282Z,100546.22
2022-09-12T08:52:59.725Z,100547.03
2022-09-12T08:55:33.788Z,100547.84
2022-09-12T08:58:03.930Z,100545.91
2022-09-12T09:00:41.272Z,100544.81
2022-09-12T09:03:25.098Z,100541.09
2022-09-12T09:05:55.316Z,100531.59
2022-09-12T09:08:47.983Z,100525.41
2022-09-12T09:11:24.235Z,100532.78
2022-09-12T09:14:13.275Z,100534.63
2022-09-12T09:16:43.612Z,100534.66
2022-09-12T09:19:15.530Z,100541.22
2022-09-12T09:21:48.097Z,100529.78
2022-09-12T09:24:21.570Z,100536.81
2022-09-12T09:26:54.024Z,100541.38
2022-09-12T09:29:24.650Z,100534.47
2022-09-12T09:31:55.950Z,100532.16
2022-09-12T09:34:26.772Z,100533.25
2022-09-12T09:36:59.764Z,100523.78
2022-09-12T09:39:38.522Z,100517.84
2022-09-12T09:44:59.041Z,100518.47
2022-09-12T09:47:28.570Z,100515.59
2022-09-12T09:49:57.976Z,100519.41
2022-09-12T09:52:30.696Z,100514.75
2022-09-12T09:55:03.442Z,100502.44
2022-09-12T09:57:44.641Z,100512.56
2022-09-12T10:00:28.611Z,100500.97
2022-09-12T10:03:06.804Z,100507.69
2022-09-12T10:05:39.633Z,100508.09
2022-09-12T10:08:09.499Z,100499.59
2022-09-12T10:10:41.472Z,100500.75
2022-09-12T10:13:12.270Z,100485.63
2022-09-12T10:15:41.679Z,100491.16
2022-09-12T10:18:11.135Z,100486.84
2022-09-12T10:20:42.004Z,100479.81
2022-09-12T10:23:20.547Z,100474.31
2022-09-12T10:25:56.129Z,100476.53
2022-09-12T10:28:27.565Z,100470.09
2022-09-12T10:30:57.721Z,100475.72
2022-09-12T10:33:27.624Z,100473.81
2022-09-12T10:35:57.140Z,100476.03
2022-09-12T10:38:27.374Z,100468.44
2022-09-12T10:41:04.144Z,100469.91
2022-09-12T10:43:37.433Z,100464.47
2022-09-12T10:46:25.994Z,100459.38
2022-09-12T10:49:14.779Z,100452.78
2022-09-12T10:51:44.223Z,100453.59
2022-09-12T10:54:13.647Z,100456.81
2022-09-12T10:56:49.945Z,100457.00
2022-09-12T10:59:25.420Z,100449.22
2022-09-12T11:01:57.703Z,100443.56
2022-09-12T11:04:32.493Z,100445.50
2022-09-12T11:07:21.219Z,100449.19
2022-09-12T11:09:52.766Z,100444.13
2022-09-12T11:12:27.958Z,100440.50
2022-09-12T11:15:07.045Z,100447.88
2022-09-12T11:17:43.469Z,100437.59
2022-09-12T11:20:36.305Z,100429.72
2022-09-12T11:23:30.401Z,100430.16
2022-09-12T11:26:02.253Z,100426.25
2022-09-12T11:28:38.141Z,100431.56
2022-09-12T11:31:38.762Z,100426.81
2022-09-12T11:34:11.239Z,100423.94
2022-09-12T11:36:44.404Z,100427.41
2022-09-12T11:39:16.136Z,100420.91
2022-09-12T11:41:47.993Z,100416.44
2022-09-12T11:44:24.391Z,100416.41
2022-09-12T11:46:53.793Z,100415.78
2022-09-12T11:49:26.978Z,100411.19
2022-09-12T11:51:58.405Z,100405.63
2022-09-12T11:54:30.910Z,100400.53
2022-09-12T11:57:07.865Z,100395.31
2022-09-12T11:59:45.379Z,100397.94
2022-09-12T12:02:15.974Z,100393.38
2022-09-12T12:04:58.447Z,100388.38
2022-09-12T12:07:27.848Z,100393.13
2022-09-12T12:09:57.268Z,100391.59
2022-09-12T12:12:28.165Z,100392.81
2022-09-12T12:14:59.924Z,100396.31
2022-09-12T12:17:30.418Z,100387.50
2022-09-12T12:20:05.786Z,100382.38
2022-09-12T12:22:37.235Z,100381.81
2022-09-12T12:25:09.240Z,100374.59
2022-09-12T12:27:53.707Z,100366.34
2022-09-12T12:31:07.868Z,100371.91
2022-09-12T12:34:03.471Z,100369.41
2022-09-12T12:36:38.671Z,100368.94
2022-09-12T12:39:51.341Z,100361.25
2022-09-12T12:43:02.845Z,100356.06
2022-09-12T12:45:51.081Z,100362.91
2022-09-12T12:48:21.630Z,100347.53
2022-09-12T12:50:53.615Z,100337.84
2022-09-12T12:53:25.145Z,100339.44
2022-09-12T12:55:54.850Z,100337.00
2022-09-12T12:58:31.609Z,100341.22
2022-09-12T13:01:12.671Z,100332.22
2022-09-12T13:03:43.600Z,100335.34
2022-09-12T13:06:22.695Z,100336.28
2022-09-12T13:08:59.890Z,100335.28
2022-09-12T13:11:34.069Z,100330.41
2022-09-12T13:14:04.655Z,100313.75
2022-09-12T13:16:35.752Z,100316.56
2022-09-12T13:19:06.788Z,100311.44
2022-09-12T13:21:38.780Z,100309.69
2022-09-12T13:24:15.559Z,100295.44
2022-09-12T13:26:46.967Z,100298.16
2022-09-12T13:29:18.247Z,100309.28
2022-09-12T13:31:48.513Z,100306.38
2022-09-12T13:34:20.196Z,100290.13
2022-09-12T13:37:22.276Z,100284.66
2022-09-12T13:39:57.178Z,100278.97
2022-09-12T13:42:42.780Z,100283.59
2022-09-12T13:45:16.926Z,100284.13
2022-09-12T13:47:47.097Z,100281.72
2022-09-12T13:50:20.301Z,100275.13
2022-09-12T13:52:52.541Z,100273.72
2022-09-12T13:55:31.946Z,100270.44
2022-09-12T13:58:02.952Z,100266.91
2022-09-12T14:00:33.270Z,100270.84
2022-09-12T14:03:15.380Z,100266.91
2022-09-12T14:05:45.310Z,100267.91
2022-09-12T14:08:15.874Z,100263.75
2022-09-12T14:10:50.417Z,100267.63
2022-09-12T14:13:21.172Z,100267.75
2022-09-12T14:15:52.580Z,100257.69
2022-09-12T14:18:27.279Z,100259.00
2022-09-12T14:20:57.468Z,100246.97
2022-09-12T14:23:30.837Z,100250.31
2022-09-12T14:26:05.097Z,100247.31
2022-09-12T14:28:35.237Z,100243.63
2022-09-12T14:31:06.591Z,100245.28
2022-09-12T14:33:37.067Z,100245.03
2022-09-12T14:36:23.518Z,100237.19
2022-09-12T14:38:53.447Z,100242.31
2022-09-12T14:41:30.276Z,100224.59
2022-09-12T14:44:01.375Z,100220.41
2022-09-12T14:46:33.565Z,100225.44
2022-09-12T14:49:03.906Z,100228.66
2022-09-12T14:51:36.024Z,100231.03
2022-09-12T14:54:05.516Z,100225.69
2022-09-12T14:56:44.153Z,100224.53
2022-09-12T14:59:23.549Z,100213.03
2022-09-12T15:01:52.997Z,100212.06
2022-09-12T15:04:40.470Z,100216.97
2022-09-12T15:07:17.353Z,100222.47
2022-09-12T15:09:47.487Z,100210.56
2022-09-12T15:12:22.306Z,100210.84
2022-09-12T15:14:51.853Z,100218.25
2022-09-12T15:17:21.236Z,100210.25
2022-09-12T15:19:50.752Z,100208.16
2022-09-12T15:22:20.144Z,100199.16
2022-09-12T15:24:49.654Z,100204.19
2022-09-12T15:27:21.640Z,100200.69
2022-09-12T15:29:51.079Z,100192.09
2022-09-12T15:32:25.803Z,100185.47
2022-09-12T15:34:55.432Z,100184.75
2022-09-12T15:37:26.824Z,100182.47
2022-09-12T15:39:56.296Z,100177.66
2022-09-12T15:42:31.424Z,100184.34
2022-09-12T15:45:02.711Z,100178.09
2022-09-12T15:47:32.344Z,100182.66
2022-09-12T15:50:01.803Z,100184.81
2022-09-12T15:52:31.525Z,100188.19
2022-09-12T15:55:00.961Z,100183.50
2022-09-12T15:57:32.952Z,100178.06
2022-09-12T16:00:02.408Z,100180.44
2022-09-12T16:02:32.075Z,100184.75
2022-09-12T16:05:01.493Z,100176.69
2022-09-12T16:07:31.037Z,100175.13
2022-09-12T16:10:00.565Z,100168.81
2022-09-12T16:12:29.965Z,100165.94
2022-09-12T16:15:02.626Z,100157.84
2022-09-12T16:17:33.371Z,100157.91
2022-09-12T16:20:02.648Z,100158.94
2022-09-12T16:22:32.205Z,100158.84
2022-09-12T16:25:01.603Z,100158.25
2022-09-12T16:27:31.059Z,100152.09
2022-09-12T16:30:03.277Z,100150.53
2022-09-12T16:32:32.675Z,100146.50
2022-09-12T16:35:02.457Z,100146.69
2022-09-12T16:37:32.325Z,100141.00
2022-09-12T16:40:01.768Z,100144.50
2022-09-12T16:42:31.220Z,100152.16
2022-09-12T16:45:03.209Z,100153.25
2022-09-12T16:47:32.971Z,100150.09
2022-09-12T16:50:02.362Z,100146.41
2022-09-12T16:52:31.773Z,100153.03
2022-09-12T16:55:01.170Z,100148.56
2022-09-12T16:57:30.574Z,100152.00
2022-09-12T17:00:00.066Z,100147.66
2022-09-12T17:02:32.131Z,100148.88
2022-09-12T17:05:01.594Z,100153.09
2022-09-12T17:07:30.992Z,100145.81
2022-09-12T17:10:00.401Z,100145.25
2022-09-12T17:12:29.808Z,100144.06
2022-09-12T17:14:59.329Z,100141.66
2022-09-12T17:17:28.737Z,100140.34
2022-09-12T17:20:00.708Z,100132.63
2022-09-12T17:22:30.097Z,100140.53
2022-09-12T17:24:59.482Z,100139.72
2022-09-12T17:27:28.896Z,100139.63
2022-09-12T17:29:58.320Z,100143.72
2022-09-12T17:32:27.722Z,100139.97
2022-09-12T17:35:00.099Z,100142.56
2022-09-12T17:37:29.507Z,100135.63
2022-09-12T17:39:58.922Z,100137.91
2022-09-12T17:42:28.752Z,100136.94
2022-09-12T17:44:58.460Z,100135.19
2022-09-12T17:47:27.971Z,100126.94
2022-09-12T17:50:14.809Z,100132.75
2022-09-12T17:52:49.632Z,100130.88
2022-09-12T17:55:19.552Z,100134.78
2022-09-12T17:57:49.111Z,100126.22
2022-09-12T18:00:39.230Z,100124.97
2022-09-12T18:03:06.279Z,100129.38
2022-09-12T18:05:38.659Z,100132.50
2022-09-12T18:08:08.244Z,100137.19
2022-09-12T18:10:37.665Z,100139.59
2022-09-12T18:13:07.047Z,100139.88
2022-09-12T18:15:37.166Z,100129.16
2022-09-12T18:18:06.902Z,100129.16
2022-09-12T18:20:39.345Z,100130.03
2022-09-12T18:23:08.746Z,100141.28
2022-09-12T18:25:38.145Z,100137.38
2022-09-12T18:28:09.251Z,100131.16
2022-09-12T18:30:38.748Z,100140.63
2022-09-12T18:33:08.161Z,100133.06
2022-09-12T18:35:40.328Z,100135.53
2022-09-12T18:38:09.747Z,100146.38
2022-09-12T18:40:39.252Z,100147.72
2022-09-12T18:43:09.260Z,100143.13
2022-09-12T18:45:38.672Z,100154.47
2022-09-12T18:48:08.136Z,100149.63
2022-09-12T18:50:40.116Z,100151.22
2022-09-12T18:53:09.500Z,100144.91
2022-09-12T18:55:38.900Z,100140.66
2022-09-12T18:58:08.344Z,100139.59
2022-09-12T19:00:40.496Z,100143.34
2022-09-12T19:03:10.241Z,100137.72
2022-09-12T19:05:42.772Z,100145.59
2022-09-12T19:08:12.180Z,100147.25
2022-09-12T19:10:41.618Z,100138.13
2022-09-12T19:13:11.020Z,100139.53
2022-09-12T19:15:42.541Z,100146.00
2022-09-12T19:18:12.626Z,100152.78
2022-09-12T19:20:44.625Z,100152.91
2022-09-12T19:23:14.151Z,100161.31
2022-09-12T19:25:43.592Z,100158.34
2022-09-12T19:28:12.998Z,100150.84
2022-09-12T19:30:49.398Z,100153.25
2022-09-12T19:33:19.086Z,100143.22
2022-09-12T19:35:51.158Z,100126.00
2022-09-12T19:38:20.761Z,100120.34
2022-09-12T19:40:58.429Z,100118.97
2022-09-12T19:43:27.834Z,100123.88
2022-09-12T19:45:57.416Z,100115.03
2022-09-12T19:48:26.884Z,100111.28
2022-09-12T19:51:00.951Z,100093.38
2022-09-12T19:53:30.845Z,100105.16
2022-09-12T19:56:01.504Z,100111.09
2022-09-12T19:58:31.037Z,100114.84
2022-09-12T20:01:09.167Z,100112.41
2022-09-12T20:03:38.581Z,100116.44
2022-09-12T20:06:12.439Z,100109.16
2022-09-12T20:08:48.473Z,100107.53
2022-09-12T20:11:19.088Z,100095.19
2022-09-12T20:13:48.785Z,100096.25
2022-09-12T20:16:22.034Z,100092.50
2022-09-12T20:18:55.529Z,100091.72
2022-09-12T20:21:31.743Z,100084.19
2022-09-12T20:24:10.816Z,100093.88
2022-09-12T20:26:40.213Z,100086.91
2022-09-12T20:29:09.686Z,100084.50
2022-09-12T20:31:39.617Z,100083.16
2022-09-12T20:34:09.213Z,100082.88
2022-09-12T20:36:41.787Z,100086.16
2022-09-12T20:39:15.250Z,100077.53
2022-09-12T20:41:44.731Z,100079.16
2022-09-12T20:44:14.153Z,100079.47
2022-09-12T20:46:43.720Z,100080.81
2022-09-12T20:49:13.125Z,100087.56
2022-09-12T20:51:45.118Z,100080.84
2022-09-12T20:54:14.504Z,100081.94
2022-09-12T20:56:43.934Z,100084.34
2022-09-12T20:59:13.381Z,100079.25
2022-09-12T21:01:43.982Z,100071.47
2022-09-12T21:04:15.280Z,100082.47
2022-09-12T21:06:47.356Z,100085.69
2022-09-12T21:09:16.753Z,100086.50
2022-09-12T21:11:46.141Z,100070.63
2022-09-12T21:14:15.527Z,100063.91
2022-09-12T21:16:44.924Z,100072.28
2022-09-12T21:19:14.328Z,100077.94
2022-09-12T21:21:43.789Z,100075.50
2022-09-12T21:24:16.573Z,100080.88
2022-09-12T21:26:45.986Z,100076.84
2022-09-12T21:29:15.385Z,100063.13
2022-09-12T21:31:45.572Z,100060.97
2022-09-12T21:34:15.041Z,100062.91
2022-09-12T21:36:44.430Z,100066.13
2022-09-12T21:39:16.763Z,100067.22
2022-09-12T21:41:46.136Z,100055.94
2022-09-12T21:44:15.644Z,100066.13
2022-09-12T21:46:45.070Z,100068.03
2022-09-12T21:49:14.545Z,100069.91
2022-09-12T21:51:43.929Z,100075.03
2022-09-12T21:54:15.984Z,100082.81
2022-09-12T21:56:45.376Z,100077.44
2022-09-12T21:59:14.806Z,100080.13
2022-09-12T22:01:44.217Z,100083.09
2022-09-12T22:04:13.649Z,100090.06
2022-09-12T22:06:43.043Z,100079.56
2022-09-12T22:09:12.428Z,100079.56
2022-09-12T22:11:44.405Z,100070.13
2022-09-12T22:14:13.861Z,100072.28
2022-09-12T22:16:43.372Z,100069.88
2022-09-12T22:19:12.969Z,100064.78
2022-09-12T22:22:02.365Z,100069.06
2022-09-12T22:24:29.204Z,100059.69
2022-09-12T22:27:01.769Z,100045.97
2022-09-12T22:29:31.178Z,100055.63
2022-09-12T22:32:01.355Z,100056.16
2022-09-12T22:34:30.802Z,100056.97
2022-09-12T22:37:00.207Z,100048.91
2022-09-12T22:39:29.843Z,100049.97
2022-09-12T22:42:03.822Z,100038.97
2022-09-12T22:44:33.233Z,100035.22
2022-09-12T22:47:02.630Z,100044.63
2022-09-12T22:49:32.200Z,100050.50
2022-09-12T22:52:01.724Z,100049.41
2022-09-12T22:54:31.185Z,100050.47
2022-09-12T22:57:03.152Z,100055.81
2022-09-12T22:59:32.548Z,100056.88
2022-09-12T23:02:01.934Z,100052.59
2022-09-12T23:04:31.392Z,100053.94
2022-09-12T23:07:00.782Z,100050.16
2022-09-12T23:09:35.145Z,100051.75
2022-09-12T23:12:07.820Z,100051.19
2022-09-12T23:14:37.232Z,100053.06
2022-09-12T23:17:06.691Z,100053.81
2022-09-12T23:19:36.084Z,100058.69
2022-09-12T23:22:05.496Z,100055.16
2022-09-12T23:24:34.897Z,100051.41
2022-09-12T23:27:06.960Z,100049.00
2022-09-12T23:29:36.384Z,100051.09
2022-09-12T23:32:06.747Z,100047.31
2022-09-12T23:34:36.167Z,100042.72
2022-09-12T23:37:05.656Z,100041.66
2022-09-12T23:40:03.519Z,100028.75
2022-09-12T23:42:35.546Z,100028.47
2022-09-12T23:45:04.977Z,100032.75
2022-09-12T23:47:34.378Z,100034.09
2022-09-12T23:50:03.805Z,100042.94
2022-09-12T23:52:33.182Z,100023.34
2022-09-12T23:55:02.623Z,100024.44
2022-09-12T23:57:32.039Z,100034.28
